1951 Tropical Cyclone NOT_NAMED (1951057S15121)


IBTrACS version v04r00. Visit IBTrACS website for data access.
Please direct all questions to the IBTrACS Q and A forum

Storm track - Intensity - Wind Radii - Intensity Data - Source Data - All data

Summary Information

Storm ID 1951057S15121
Start Feb 26 01Z
Max Intensity 60 kt (Feb 28 00Z), 980 mb (Feb 28 00Z)
End Mar 5 01Z
ATCF IDs ,SH231951
Track status Best track data.

Storm track plot

Map of storm track

Intensity plots

Map of storm track

Radial wind information

No radial wind information for this storm


Position and Intensity Table

BASIN ISO_TIME_________ NATURE LAT LON WMO PRES BOM PRES DS824 WIND DS824 PRES
degrees north degrees east mb mb kts mb
SI 1951-02-26 01:00:00 NR -15.00 121.00 995 995
SI 03:00:00 NR -15.08 120.83
SI 06:00:00 NR -15.20 120.58
SI 09:00:00 NR -15.32 120.34
SI 12:00:00 NR -15.46 120.11
SI 15:00:00 NR -15.61 119.89
SI 18:00:00 NR -15.79 119.68
SI 21:00:00 NR -15.99 119.50
SI 23:00:00 NR -16.01 119.40
SI 1951-02-27 00:00:00 TS -15.97 119.37 45 990
SI 01:00:00 TS -16.05 119.36 990 990
SI 03:00:00 TS -16.30 119.34
SI 06:00:00 TS -16.72 119.30
SI 09:00:00 TS -17.17 119.24
SI 11:00:00 TS -17.50 119.19
SI 12:00:00 TS -17.68 119.17
SI 15:00:00 TS -18.30 119.09
SI 18:00:00 TS -18.91 118.99
SI 21:00:00 TS -19.41 118.83
SI 23:00:00 TS -19.66 118.68
SI 1951-02-28 00:00:00 TS -19.75 118.58 60 980
SI 01:00:00 TS -19.81 118.48 980 980 60 980
SI 03:00:00 TS -19.89 118.25 980 60 980
SI 06:00:00 TS -19.92 117.84 980 60 980
SI 07:00:00 TS -19.92 117.70 980 980
SI 09:00:00 TS -19.91 117.41
SI 11:00:00 TS -19.90 117.11
SI 12:00:00 TS -19.90 116.96
SI 15:00:00 TS -19.91 116.51
SI 18:00:00 TS -19.92 116.08
SI 21:00:00 TS -19.93 115.66
SI 23:00:00 TS -19.95 115.41
SI 1951-03-01 00:00:00 TS -19.97 115.30
SI 01:00:00 TS -20.00 115.20 980 980
SI 03:00:00 TS -20.08 115.01
SI 06:00:00 TS -20.22 114.75
SI 09:00:00 TS -20.32 114.47
SI 11:00:00 TS -20.37 114.28
SI 12:00:00 TS -20.40 114.18
SI 15:00:00 TS -20.47 113.87
SI 18:00:00 TS -20.54 113.56
SI 21:00:00 TS -20.59 113.25
SI 23:00:00 TS -20.62 113.05
SI 1951-03-02 00:00:00 TS -20.64 112.95 60 980
SI 01:00:00 TS -20.66 112.87 980 980
SI 03:00:00 TS -20.72 112.70
SI 06:00:00 TS -20.79 112.46
SI 09:00:00 TS -20.85 112.22
SI 11:00:00 TS -20.89 112.05
SI 12:00:00 TS -20.92 111.96
SI 15:00:00 TS -21.03 111.68
SI 18:00:00 TS -21.15 111.35
SI 21:00:00 TS -21.25 110.99
SI 23:00:00 TS -21.32 110.74
SI 1951-03-03 00:00:00 TS -21.36 110.60 55 985
SI 01:00:00 TS -21.41 110.46 985 985
SI 03:00:00 TS -21.53 110.16
SI 06:00:00 TS -21.71 109.71
SI 09:00:00 TS -21.86 109.28
SI 11:00:00 TS -21.95 109.02
SI 12:00:00 TS -21.99 108.90
SI 15:00:00 TS -22.12 108.62
SI 18:00:00 TS -22.25 108.37
SI 21:00:00 TS -22.34 108.12
SI 23:00:00 TS -22.40 107.94
SI 1951-03-04 00:00:00 TS -22.44 107.85 45 990
SI 01:00:00 TS -22.49 107.85 990 990
SI 03:00:00 TS -22.59 107.76
SI 06:00:00 TS -22.74 107.68
SI 09:00:00 TS -22.87 107.72
SI 11:00:00 TS -22.93 107.67
SI 12:00:00 TS -22.95 107.77
SI 15:00:00 TS -22.98 107.40
SI 18:00:00 TS -23.00 107.00 997 997 35 997
SI 21:00:00 TS -23.00 106.57 998 32 998
SI 1951-03-05 00:00:00 TS -23.00 106.13 999 30 1000
SI 01:00:00 NR -23.00 106.00 1000 1000

Source Information

Agency Information
USA bsh231951.txt
TOKYO
CMA
HKO
NEWDELHI
REUNION
BOM IDCKMSTM0S.csv:Line=1681:unnamed
NADI
WELLINGTON
DS824 aus_area.dat:183:NOT NAMED
TD9636 cons_worldwide_trop_cyclone_18710101-19891231-006:Line=3778
TD9635
NEUMANN
MLC

All available IBTrACS Data

SEASON BASIN SUBBASIN ISO_TIME_________ NATURE LAT LON WMO PRES WMO AGENCY DIST2LAND LANDFALL IFLAG USA AGENCY USA ATCF_ID USA LAT USA LON USA SSHS BOM LAT BOM LON BOM PRES BOM PRES_METHOD DS824 LAT DS824 LON DS824 STAGE DS824 WIND DS824 PRES TD9636 LAT TD9636 LON TD9636 STAGE STORM SPEED STORM DIR
Year degrees north degrees east mb km km degrees north degrees east 1 degrees north degrees east mb degrees north degrees east kts mb degrees north degrees east kts degrees
1951 SI WA 1951-02-26 01:00:00 NR -15.00 121.00 995 bom 263 262 ______O_______ -1 -15.00 121.00 995 5 245
1951 SI WA 03:00:00 NR -15.08 120.83 270 270 ______P_______ -1 -15.08 120.83 5 244
1951 SI WA 06:00:00 NR -15.20 120.58 278 278 ______P_______ -1 -15.20 120.58 5 243
1951 SI WA 09:00:00 NR -15.32 120.34 293 286 ______P_______ -1 -15.32 120.34 5 240
1951 SI WA 12:00:00 NR -15.46 120.11 295 295 ______P_______ -1 -15.46 120.11 5 236
1951 SI WA 15:00:00 NR -15.61 119.89 306 306 ______P_______ -1 -15.61 119.89 5 231
1951 SI WA 18:00:00 NR -15.79 119.68 313 313 ______P_______ -1 -15.79 119.68 5 225
1951 SI WA 21:00:00 NR -15.99 119.50 322 322 ______P_______ -1 -15.99 119.50 4 231
1951 SI WA 23:00:00 NR -16.01 119.40 331 331 ______P___O___ -1 -16.14 119.40 -15.50 119.40 7 3 277
1951 SI WA 1951-02-27 00:00:00 TS -15.97 119.37 331 331 O_____P__OP___ jtwc_sh SH231951 -15.70 119.40 -1 -16.22 119.35 -16.20 119.40 TC 45 990 -15.64 119.39 7 2 223
1951 SI WA 01:00:00 TS -16.05 119.36 990 bom 327 322 P_____O__PP___ SH231951 -15.87 119.40 -1 -16.30 119.30 990 -16.31 119.38 TC -15.79 119.38 7 7 188
1951 SI WA 03:00:00 TS -16.30 119.34 328 314 P_____P__PP___ SH231951 -16.20 119.41 -1 -16.48 119.22 -16.53 119.33 TC -16.09 119.36 7 8 184
1951 SI WA 06:00:00 TS -16.72 119.30 314 302 O_____P__PP___ jtwc_sh SH231951 -16.70 119.40 -1 -16.77 119.11 -16.85 119.26 TC -16.58 119.33 7 9 186
1951 SI WA 09:00:00 TS -17.17 119.24 307 286 P_____P__PP___ SH231951 -17.21 119.36 -1 -17.09 119.01 -17.18 119.16 TC -17.16 119.31 7 9 187
1951 SI WA 11:00:00 TS -17.50 119.19 286 264 P_____P__PO___ SH231951 -17.59 119.32 -1 -17.32 118.94 -17.40 119.09 TC -17.60 119.30 7 10 187
1951 SI WA 12:00:00 TS -17.68 119.17 264 201 O_____P__PP___ jtwc_sh SH231951 -17.80 119.30 -1 -17.43 118.90 -17.51 119.04 TC -17.84 119.30 7 12 187
1951 SI WA 15:00:00 TS -18.30 119.09 201 134 P_____P__PP___ SH231951 -18.61 119.26 -1 -17.79 118.77 -17.85 118.88 TC -18.63 119.29 7 12 188
1951 SI WA 18:00:00 TS -18.91 118.99 134 84 O_____P__PP___ jtwc_sh SH231951 -19.40 119.20 -1 -18.15 118.60 -18.19 118.68 TC -19.39 119.24 7 11 193
1951 SI WA 21:00:00 TS -19.41 118.83 84 61 P_____P__PP___ SH231951 -19.98 119.10 -1 -18.52 118.39 -18.54 118.42 TC -20.02 119.13 7 10 201
1951 SI WA 23:00:00 TS -19.66 118.68 61 61 P_____P__PO___ SH231951 -20.23 118.98 -1 -18.76 118.21 -18.78 118.22 TC -20.30 119.00 7 8 214
1951 SI WA 1951-02-28 00:00:00 TS -19.75 118.58 68 61 O_____P__OP___ jtwc_sh SH231951 -20.30 118.90 -1 -18.88 118.11 -18.90 118.10 TC 60 980 -20.36 118.91 7 7 229
1951 SI WA 01:00:00 TS -19.81 118.48 980 bom 67 55 P_____O__PP___ SH231951 -20.33 118.81 -1 -19.00 118.00 980 4 -19.02 117.98 TC 60 980 -20.39 118.82 7 7 245
1951 SI WA 03:00:00 TS -19.89 118.25 55 55 P_____P__PP___ SH231951 -20.29 118.60 -1 -19.25 117.74 980 -19.26 117.71 TC 60 980 -20.36 118.59 7 7 260
1951 SI WA 06:00:00 TS -19.92 117.84 64 64 O_____P__OP___ jtwc_sh SH231951 -20.10 118.20 -1 -19.60 117.33 980 -19.60 117.30 TC 60 980 -20.19 118.18 7 8 267
1951 SI WA 07:00:00 TS -19.92 117.70 980 bom 69 69 P_____O__PP___ SH231951 -20.05 118.05 -1 -19.70 117.20 980 -19.70 117.17 TC -20.11 118.03 7 8 271
1951 SI WA 09:00:00 TS -19.91 117.41 85 84 P_____P__PP___ SH231951 -19.94 117.72 -1 -19.86 116.95 -19.88 116.92 TC -19.94 117.72 7 8 272
1951 SI WA 11:00:00 TS -19.90 117.11 84 81 P_____P__PO___ SH231951 -19.84 117.37 -1 -19.97 116.72 -20.04 116.67 TC -19.80 117.40 7 8 272
1951 SI WA 12:00:00 TS -19.90 116.96 81 78 O_____P__PP___ jtwc_sh SH231951 -19.80 117.20 -1 -20.01 116.60 -20.11 116.55 TC -19.77 117.24 7 8 269
1951 SI WA 15:00:00 TS -19.91 116.51 81 81 P_____P__PP___ SH231951 -19.73 116.69 -1 -20.09 116.28 -20.29 116.19 TC -19.70 116.72 7 8 268
1951 SI WA 18:00:00 TS -19.92 116.08 100 100 O_____P__PP___ jtwc_sh SH231951 -19.70 116.20 -1 -20.11 115.97 -20.43 115.85 TC -19.66 116.19 7 8 269
1951 SI WA 21:00:00 TS -19.93 115.66 123 128 P_____P__PP___ SH231951 -19.66 115.71 -1 -20.11 115.68 -20.53 115.53 TC -19.67 115.69 7 8 268
1951 SI WA 23:00:00 TS -19.95 115.41 139 130 P_____P__PO___ SH231951 -19.67 115.42 -1 -20.10 115.49 -20.58 115.32 TC -19.70 115.40 7 7 263
1951 SI WA 1951-03-01 00:00:00 TS -19.97 115.30 137 137 O_____P__PP___ jtwc_sh SH231951 -19.70 115.30 -1 -20.10 115.39 -20.60 115.21 TC -19.73 115.28 7 6 256
1951 SI WA 01:00:00 TS -20.00 115.20 980 bom 142 139 P_____O__PP___ SH231951 -19.75 115.20 -1 -20.10 115.30 980 -20.62 115.11 TC -19.77 115.17 7 6 246
1951 SI WA 03:00:00 TS -20.08 115.01 145 144 P_____P__PP___ SH231951 -19.88 115.03 -1 -20.15 115.09 -20.65 114.92 TC -19.86 114.98 7 6 242
1951 SI WA 06:00:00 TS -20.22 114.75 159 152 O_____P__PP___ jtwc_sh SH231951 -20.10 114.80 -1 -20.22 114.79 -20.67 114.63 TC -20.03 114.72 7 6 245
1951 SI WA 09:00:00 TS -20.32 114.47 161 154 P_____P__PP___ SH231951 -20.21 114.51 -1 -20.29 114.50 -20.68 114.36 TC -20.20 114.48 7 6 251
1951 SI WA 11:00:00 TS -20.37 114.28 158 158 P_____P__PO___ SH231951 -20.27 114.31 -1 -20.34 114.30 -20.68 114.19 TC -20.30 114.30 7 6 254
1951 SI WA 12:00:00 TS -20.40 114.18 161 156 O_____P__PP___ jtwc_sh SH231951 -20.30 114.20 -1 -20.37 114.21 -20.68 114.11 TC -20.34 114.19 7 6 256
1951 SI WA 15:00:00 TS -20.47 113.87 156 156 P_____P__PP___ SH231951 -20.41 113.86 -1 -20.44 113.93 -20.68 113.86 TC -20.42 113.85 7 6 256
1951 SI WA 18:00:00 TS -20.54 113.56 161 154 O_____P__PP___ jtwc_sh SH231951 -20.50 113.50 -1 -20.52 113.66 -20.68 113.63 TC -20.49 113.49 7 6 259
1951 SI WA 21:00:00 TS -20.59 113.25 167 167 P_____P__PP___ SH231951 -20.55 113.14 -1 -20.60 113.41 -20.68 113.41 TC -20.56 113.13 7 6 260
1951 SI WA 23:00:00 TS -20.62 113.05 178 178 P_____P__PO___ SH231951 -20.58 112.91 -1 -20.65 113.25 -20.69 113.27 TC -20.60 112.90 7 6 259
1951 SI WA 1951-03-02 00:00:00 TS -20.64 112.95 178 176 O_____P__OP___ jtwc_sh SH231951 -20.60 112.80 -1 -20.67 113.18 -20.70 113.20 TC 60 980 -20.62 112.80 7 5 255
1951 SI WA 01:00:00 TS -20.66 112.87 980 bom 176 176 P_____O__PP___ SH231951 -20.63 112.69 -1 -20.70 113.10 980 -20.72 113.14 TC -20.64 112.70 7 5 252
1951 SI WA 03:00:00 TS -20.72 112.70 190 190 P_____P__PP___ SH231951 -20.70 112.49 -1 -20.74 112.97 -20.76 113.02 TC -20.69 112.51 7 5 251
1951 SI WA 06:00:00 TS -20.79 112.46 198 206 O_____P__PP___ jtwc_sh SH231951 -20.80 112.20 -1 -20.80 112.80 -20.82 112.86 TC -20.76 112.23 7 5 253
1951 SI WA 09:00:00 TS -20.85 112.22 217 217 P_____P__PP___ SH231951 -20.84 111.91 -1 -20.85 112.64 -20.88 112.70 TC -20.84 111.92 7 5 255
1951 SI WA 11:00:00 TS -20.89 112.05 226 235 P_____P__PO___ SH231951 -20.87 111.71 -1 -20.89 112.54 -20.92 112.60 TC -20.90 111.70 7 5 254
1951 SI WA 12:00:00 TS -20.92 111.96 235 239 O_____P__PP___ jtwc_sh SH231951 -20.90 111.60 -1 -20.92 112.49 -20.94 112.55 TC -20.93 111.58 7 6 249
1951 SI WA 15:00:00 TS -21.03 111.68 258 258 P_____P__PP___ SH231951 -21.04 111.23 -1 -20.98 112.33 -21.01 112.39 TC -21.05 111.19 7 6 248
1951 SI WA 18:00:00 TS -21.15 111.35 281 284 O_____P__PP___ jtwc_sh SH231951 -21.20 110.80 -1 -21.06 112.17 -21.10 112.22 TC -21.17 110.77 7 7 251
1951 SI WA 21:00:00 TS -21.25 110.99 310 304 P_____P__PP___ SH231951 -21.29 110.32 -1 -21.15 111.98 -21.19 112.02 TC -21.31 110.32 7 7 253
1951 SI WA 23:00:00 TS -21.32 110.74 332 332 P_____P__PO___ SH231951 -21.36 109.98 -1 -21.22 111.85 -21.26 111.88 TC -21.40 110.00 7 8 253
1951 SI WA 1951-03-03 00:00:00 TS -21.36 110.60 337 337 O_____P__OP___ jtwc_sh SH231951 -21.40 109.80 -1 -21.26 111.78 -21.30 111.80 TC 55 985 -21.45 109.82 7 8 250
1951 SI WA 01:00:00 TS -21.41 110.46 985 bom 346 346 P_____O__PP___ SH231951 -21.46 109.62 -1 -21.30 111.70 985 -21.35 111.71 TC -21.50 109.64 7 9 248
1951 SI WA 03:00:00 TS -21.53 110.16 371 377 P_____P__PP___ SH231951 -21.60 109.24 -1 -21.40 111.52 -21.45 111.53 TC -21.61 109.26 7 9 247
1951 SI WA 06:00:00 TS -21.71 109.71 413 413 O_____P__PP___ jtwc_sh SH231951 -21.80 108.70 -1 -21.58 111.23 -21.61 111.22 TC -21.77 108.70 7 9 248
1951 SI WA 09:00:00 TS -21.86 109.28 449 449 P_____P__PP___ SH231951 -21.91 108.20 -1 -21.77 110.91 -21.79 110.90 TC -21.92 108.19 7 8 250
1951 SI WA 11:00:00 TS -21.95 109.02 479 477 P_____P__PO___ SH231951 -21.97 107.92 -1 -21.90 110.69 -21.91 110.67 TC -22.00 107.90 7 7 249
1951 SI WA 12:00:00 TS -21.99 108.90 487 487 O_____P__PP___ jtwc_sh SH231951 -22.00 107.80 -1 -21.96 110.57 -21.97 110.55 TC -22.03 107.79 7 6 245
1951 SI WA 15:00:00 TS -22.12 108.62 517 515 P_____P__PP___ SH231951 -22.11 107.56 -1 -22.16 110.22 -22.14 110.20 TC -22.11 107.55 7 6 243
1951 SI WA 18:00:00 TS -22.25 108.37 536 535 O_____P__PP___ jtwc_sh SH231951 -22.20 107.40 -1 -22.35 109.86 -22.31 109.83 TC -22.17 107.38 7 5 245
1951 SI WA 21:00:00 TS -22.34 108.12 565 565 P_____P__PP___ SH231951 -22.24 107.21 -1 -22.51 109.49 -22.47 109.47 TC -22.24 107.22 7 5 248
1951 SI WA 23:00:00 TS -22.40 107.94 585 585 P_____P__PO___ SH231951 -22.27 107.08 -1 -22.61 109.24 -22.56 109.22 TC -22.30 107.10 7 5 249
1951 SI WA 1951-03-04 00:00:00 TS -22.44 107.85 585 595 O_____P__OP___ jtwc_sh SH231951 -22.30 107.00 -1 -22.66 109.12 -22.60 109.10 TC 45 990 -22.34 107.03 7 4 225
1951 SI WA 01:00:00 TS -22.49 107.85 990 bom 595 595 P_____O__PP___ SH231951 -22.33 106.91 -1 -22.70 109.00 990 -22.64 108.99 TC -22.38 106.95 7 3 207
1951 SI WA 03:00:00 TS -22.59 107.76 595 595 P_____P__PP___ SH231951 -22.43 106.72 -1 -22.77 108.78 -22.71 108.78 TC -22.46 106.77 7 4 211
1951 SI WA 06:00:00 TS -22.74 107.68 605 602 O_____P__PP___ jtwc_sh SH231951 -22.60 106.40 -1 -22.85 108.45 -22.80 108.46 TC -22.62 106.47 7 3 186
1951 SI WA 09:00:00 TS -22.87 107.72 602 602 ______P__PP___ SH231951 -1 -22.91 108.11 -22.88 108.13 TC -22.78 106.13 7 2 185
1951 SI WA 11:00:00 TS -22.93 107.67 602 592 ______P__PO___ SH231951 -1 -22.94 107.88 -22.92 107.90 TC -22.90 105.90 7 2 158
1951 SI WA 12:00:00 TS -22.95 107.77 592 589 ______P__P____ -1 -22.96 107.76 -22.94 107.78 TC 7 4 258
1951 SI WA 15:00:00 TS -22.98 107.40 629 629 ______P__P____ -1 -22.98 107.39 -22.98 107.40 TC 7 7 266
1951 SI WA 18:00:00 TS -23.00 107.00 997 bom 669 669 ______O__O____ -1 -23.00 107.00 997 -23.00 107.00 TC 35 997 7 8 268
1951 SI WA 21:00:00 TS -23.00 106.57 709 719 ______P__P____ -1 -23.00 106.58 998 -23.01 106.56 TC 32 998 7 8 270
1951 SI WA 1951-03-05 00:00:00 TS -23.00 106.13 759 759 ______P__O____ -1 -23.00 106.15 999 -23.00 106.10 TC 30 1000 8 271
1951 SI WA 01:00:00 NR -23.00 106.00 1000 bom 769 ______O_______ -1 -23.00 106.00 1000 TC 7 271